Time;durP1;ratioP1;P1;durP2;ratioP2;P2;SDS_P1;SDS_P2;PMS_P1;PMS_P2;Temp;Humidity;BMP_temperature;BMP_pressure;BME280_temperature;BME280_humidity;BME280_pressure;Samples;Min_cycle;Max_cycle;Signal;HPM_P1;HPM_P2
2022/03/21 00:02:04;;;;;;;12.97;10.30;;;;;;;;;;5015696;28;20212;-76
2022/03/21 00:04:29;;;;;;;16.60;10.67;;;;;;;;;;5007169;28;20502;-76
2022/03/21 00:06:54;;;;;;;18.13;11.17;;;;;;;;;;5021713;28;20179;-75
2022/03/21 00:09:20;;;;;;;15.13;10.30;;;;;;;;;;5004402;28;20193;-75
2022/03/21 00:11:45;;;;;;;15.33;11.37;;;;;;;;;;4993913;28;20199;-76
2022/03/21 00:14:11;;;;;;;17.08;12.20;;;;;;;;;;4995493;28;20284;-76
2022/03/21 00:16:37;;;;;;;17.47;12.60;;;;;;;;;;4999009;28;20208;-75
2022/03/21 00:19:03;;;;;;;15.57;11.37;;;;;;;;;;5024252;28;20182;-75
2022/03/21 00:21:29;;;;;;;17.13;11.03;;;;;;;;;;5002088;28;20259;-76
2022/03/21 00:23:54;;;;;;;17.17;11.50;;;;;;;;;;4998429;28;20277;-76
2022/03/21 00:26:19;;;;;;;18.50;11.50;;;;;;;;;;5020438;28;20256;-76
2022/03/21 00:28:44;;;;;;;15.53;11.17;;;;;;;;;;4995202;28;20204;-76
2022/03/21 00:31:09;;;;;;;15.23;11.20;;;;;;;;;;4997074;28;20252;-75
2022/03/21 00:33:35;;;;;;;15.67;11.70;;;;;;;;;;5023597;28;20228;-76
2022/03/21 00:36:00;;;;;;;16.13;10.73;;;;;;;;;;5002756;28;20180;-76
2022/03/21 00:38:26;;;;;;;15.87;11.13;;;;;;;;;;5039639;28;20210;-76
2022/03/21 00:40:51;;;;;;;15.27;10.37;;;;;;;;;;4995255;28;20179;-76
2022/03/21 00:43:19;;;;;;;14.93;11.30;;;;;;;;;;5008661;28;20188;-76
2022/03/21 00:45:46;;;;;;;17.83;11.97;;;;;;;;;;5021532;28;20201;-76
2022/03/21 00:48:11;;;;;;;15.53;11.00;;;;;;;;;;4999948;28;20187;-76
2022/03/21 00:50:36;;;;;;;14.43;10.70;;;;;;;;;;4994113;28;20194;-76
2022/03/21 00:53:01;;;;;;;16.33;11.27;;;;;;;;;;5001246;28;20245;-76
2022/03/21 00:55:28;;;;;;;16.30;12.07;;;;;;;;;;4996804;28;20212;-76
2022/03/21 00:57:54;;;;;;;14.30;10.07;;;;;;;;;;5015790;28;20212;-76
2022/03/21 01:00:20;;;;;;;14.60;10.13;;;;;;;;;;4994887;28;20209;-76
2022/03/21 01:02:46;;;;;;;17.57;11.57;;;;;;;;;;4997073;28;20175;-76
2022/03/21 01:05:11;;;;;;;16.20;10.10;;;;;;;;;;5006269;28;20209;-75
2022/03/21 01:07:37;;;;;;;15.10;11.13;;;;;;;;;;5020368;28;20182;-76
2022/03/21 01:10:04;;;;;;;15.03;10.23;;;;;;;;;;5020906;28;20193;-76
2022/03/21 01:12:29;;;;;;;13.97;10.93;;;;;;;;;;5018855;28;20184;-76
2022/03/21 01:14:54;;;;;;;15.33;11.63;;;;;;;;;;4997269;28;20227;-76
2022/03/21 01:17:20;;;;;;;15.50;10.47;;;;;;;;;;4999417;28;20198;-76
2022/03/21 01:19:45;;;;;;;16.87;10.43;;;;;;;;;;4997973;28;20192;-76
2022/03/21 01:22:10;;;;;;;15.70;11.87;;;;;;;;;;4993207;28;20237;-76
2022/03/21 01:24:37;;;;;;;18.10;11.90;;;;;;;;;;4995735;28;20186;-76
2022/03/21 01:27:03;;;;;;;15.30;10.70;;;;;;;;;;5016853;28;20182;-76
2022/03/21 01:29:28;;;;;;;13.87;9.90;;;;;;;;;;5005496;28;20196;-75
2022/03/21 01:31:54;;;;;;;14.50;10.47;;;;;;;;;;4998966;28;20179;-75
2022/03/21 01:34:19;;;;;;;13.53;9.90;;;;;;;;;;5012428;28;20202;-75
2022/03/21 01:36:44;;;;;;;14.77;9.93;;;;;;;;;;5021256;28;20591;-76
2022/03/21 01:39:09;;;;;;;14.70;10.30;;;;;;;;;;5015120;28;20181;-76
2022/03/21 01:41:34;;;;;;;15.93;10.67;;;;;;;;;;5010148;28;20205;-76
2022/03/21 01:44:01;;;;;;;15.43;10.17;;;;;;;;;;5004806;28;20190;-76
2022/03/21 01:46:27;;;;;;;16.73;10.33;;;;;;;;;;5003363;28;20181;-76
2022/03/21 01:48:52;;;;;;;14.67;10.50;;;;;;;;;;4992834;28;20242;-76
2022/03/21 01:51:17;;;;;;;15.33;10.07;;;;;;;;;;5040705;28;20230;-76
2022/03/21 01:56:27;;;;;;;13.60;10.53;;;;;;;;;;5026329;28;20194;-76
2022/03/21 01:58:52;;;;;;;18.53;10.10;;;;;;;;;;4997406;28;20285;-76
2022/03/21 02:01:18;;;;;;;15.43;9.37;;;;;;;;;;4992813;28;20267;-76
2022/03/21 02:03:43;;;;;;;16.27;10.53;;;;;;;;;;5023587;28;20205;-76
2022/03/21 02:06:08;;;;;;;13.33;9.37;;;;;;;;;;4992938;28;20182;-76
2022/03/21 02:08:33;;;;;;;14.43;10.33;;;;;;;;;;4998938;28;20216;-76
2022/03/21 02:11:00;;;;;;;13.70;10.17;;;;;;;;;;4999074;28;20177;-76
2022/03/21 02:13:26;;;;;;;14.77;10.20;;;;;;;;;;4992178;28;20188;-76
2022/03/21 02:15:51;;;;;;;15.30;9.93;;;;;;;;;;4995871;28;20234;-76
2022/03/21 02:18:17;;;;;;;12.70;9.93;;;;;;;;;;5013237;28;20202;-76
2022/03/21 02:20:43;;;;;;;16.13;9.77;;;;;;;;;;5006645;28;20206;-75
2022/03/21 02:23:20;;;;;;;12.73;9.57;;;;;;;;;;4999913;28;20180;-76
2022/03/21 02:25:46;;;;;;;12.43;9.17;;;;;;;;;;4989096;28;20186;-76
2022/03/21 02:28:15;;;;;;;14.20;9.47;;;;;;;;;;5019479;28;20222;-76
2022/03/21 02:30:45;;;;;;;19.00;12.23;;;;;;;;;;5002732;28;20188;-76
2022/03/21 02:33:12;;;;;;;16.67;10.40;;;;;;;;;;4996425;28;20180;-76
2022/03/21 02:35:38;;;;;;;15.90;10.67;;;;;;;;;;4994738;28;20421;-76
2022/03/21 02:38:03;;;;;;;14.60;10.30;;;;;;;;;;4996713;28;20312;-76
2022/03/21 02:40:28;;;;;;;13.17;9.83;;;;;;;;;;4987306;28;20185;-76
2022/03/21 02:42:54;;;;;;;15.07;10.50;;;;;;;;;;4993959;28;20198;-76
2022/03/21 02:45:19;;;;;;;17.33;10.37;;;;;;;;;;5022592;28;20178;-76
2022/03/21 02:47:45;;;;;;;15.93;10.83;;;;;;;;;;4998991;28;20178;-76
2022/03/21 02:50:15;;;;;;;17.17;10.13;;;;;;;;;;5008991;28;20186;-76
2022/03/21 02:52:41;;;;;;;14.63;9.80;;;;;;;;;;5038178;28;20188;-76
2022/03/21 02:55:06;;;;;;;15.57;10.80;;;;;;;;;;4995442;28;20211;-75
2022/03/21 02:57:33;;;;;;;13.07;9.57;;;;;;;;;;4999433;28;20183;-76
2022/03/21 02:59:58;;;;;;;16.07;10.17;;;;;;;;;;4994624;28;20180;-76
2022/03/21 03:02:23;;;;;;;13.53;9.80;;;;;;;;;;4991989;28;20192;-76
2022/03/21 03:04:48;;;;;;;14.00;9.20;;;;;;;;;;5002626;28;20234;-76
2022/03/21 03:07:13;;;;;;;15.97;9.67;;;;;;;;;;4993441;28;20171;-76
2022/03/21 03:09:39;;;;;;;13.90;9.33;;;;;;;;;;4998611;28;20248;-76
2022/03/21 03:12:04;;;;;;;13.07;8.70;;;;;;;;;;5027394;28;20272;-76
2022/03/21 03:14:29;;;;;;;13.83;8.60;;;;;;;;;;4993621;28;20285;-76
2022/03/21 03:16:56;;;;;;;14.17;8.57;;;;;;;;;;5001838;28;20184;-75
2022/03/21 03:19:21;;;;;;;13.37;8.90;;;;;;;;;;4999704;28;20239;-76
2022/03/21 03:21:46;;;;;;;12.70;9.30;;;;;;;;;;4997277;28;20188;-76
2022/03/21 03:24:12;;;;;;;12.70;8.97;;;;;;;;;;4999289;28;20203;-76
2022/03/21 03:26:37;;;;;;;14.10;9.00;;;;;;;;;;5013424;28;20239;-76
2022/03/21 03:29:02;;;;;;;15.40;8.67;;;;;;;;;;4995039;28;20191;-76
2022/03/21 03:31:28;;;;;;;12.83;8.73;;;;;;;;;;5006120;28;20184;-76
2022/03/21 03:33:53;;;;;;;15.30;9.07;;;;;;;;;;4990725;28;20189;-76
2022/03/21 03:36:19;;;;;;;12.00;9.47;;;;;;;;;;5020772;28;20175;-76
2022/03/21 03:38:45;;;;;;;18.37;9.70;;;;;;;;;;5006418;28;20274;-76
2022/03/21 03:41:10;;;;;;;12.40;9.30;;;;;;;;;;4991865;28;20180;-75
2022/03/21 03:43:36;;;;;;;14.50;10.13;;;;;;;;;;5005804;28;20188;-76
2022/03/21 03:46:01;;;;;;;13.53;9.50;;;;;;;;;;5000355;28;20191;-76
2022/03/21 03:48:26;;;;;;;15.43;10.00;;;;;;;;;;4996021;28;20189;-75
2022/03/21 03:50:52;;;;;;;13.57;9.80;;;;;;;;;;4997415;28;20185;-76
2022/03/21 03:53:18;;;;;;;15.23;9.70;;;;;;;;;;5022590;28;20179;-75
2022/03/21 03:55:43;;;;;;;16.03;10.40;;;;;;;;;;5003837;28;20297;-76
2022/03/21 03:58:08;;;;;;;14.60;9.27;;;;;;;;;;4996297;28;20186;-76
2022/03/21 04:00:35;;;;;;;13.50;9.13;;;;;;;;;;5009022;28;20189;-75
2022/03/21 04:05:44;;;;;;;16.13;9.20;;;;;;;;;;5010418;28;20186;-75
2022/03/21 04:08:10;;;;;;;12.73;8.87;;;;;;;;;;4991818;28;20179;-75
2022/03/21 04:10:35;;;;;;;18.33;12.37;;;;;;;;;;5012844;28;21531;-76
2022/03/21 04:13:00;;;;;;;13.73;9.30;;;;;;;;;;4996496;28;20171;-76
2022/03/21 04:15:26;;;;;;;15.50;9.13;;;;;;;;;;5001548;28;20239;-75
2022/03/21 04:17:53;;;;;;;14.30;9.33;;;;;;;;;;4994632;28;20177;-76
2022/03/21 04:20:18;;;;;;;14.30;9.57;;;;;;;;;;5014998;28;20285;-76
2022/03/21 04:22:43;;;;;;;11.67;8.20;;;;;;;;;;5008227;28;20285;-76
2022/03/21 04:25:10;;;;;;;12.47;8.20;;;;;;;;;;5016765;28;20197;-76
2022/03/21 04:27:36;;;;;;;15.80;10.13;;;;;;;;;;4997304;28;20262;-76
2022/03/21 04:30:01;;;;;;;12.27;8.33;;;;;;;;;;5019822;28;20185;-76
2022/03/21 04:32:26;;;;;;;14.00;9.30;;;;;;;;;;5022026;28;20171;-76
2022/03/21 04:34:52;;;;;;;14.77;8.93;;;;;;;;;;4994153;28;20206;-76
2022/03/21 04:37:17;;;;;;;16.57;9.90;;;;;;;;;;5009851;28;20206;-76
2022/03/21 04:39:42;;;;;;;12.00;8.57;;;;;;;;;;4990993;28;20184;-76
2022/03/21 04:42:07;;;;;;;12.70;8.57;;;;;;;;;;5000268;28;20176;-76
2022/03/21 04:44:33;;;;;;;14.07;9.00;;;;;;;;;;5022072;28;20188;-76
2022/03/21 04:46:58;;;;;;;14.53;9.27;;;;;;;;;;5000284;28;20186;-76
2022/03/21 04:49:23;;;;;;;13.43;8.97;;;;;;;;;;4999124;28;20187;-75
2022/03/21 04:51:48;;;;;;;14.30;9.50;;;;;;;;;;4995459;28;20218;-75
2022/03/21 04:54:13;;;;;;;17.07;10.90;;;;;;;;;;5020833;28;20199;-76
2022/03/21 04:56:38;;;;;;;14.17;9.70;;;;;;;;;;5018082;28;20193;-76
2022/03/21 04:59:04;;;;;;;12.10;8.90;;;;;;;;;;5001572;28;20350;-75
2022/03/21 05:01:29;;;;;;;12.67;8.93;;;;;;;;;;5013226;28;20274;-76
2022/03/21 05:03:55;;;;;;;13.13;8.47;;;;;;;;;;5022781;28;20195;-76
2022/03/21 05:06:20;;;;;;;14.00;9.80;;;;;;;;;;5018866;28;20185;-75
2022/03/21 05:08:45;;;;;;;15.57;9.63;;;;;;;;;;5021530;28;20179;-75
2022/03/21 05:11:10;;;;;;;15.70;9.00;;;;;;;;;;5017454;28;20250;-76
2022/03/21 05:13:36;;;;;;;15.70;9.27;;;;;;;;;;4992347;28;20179;-76
2022/03/21 05:16:02;;;;;;;16.63;9.30;;;;;;;;;;5019401;28;20200;-76
2022/03/21 05:18:28;;;;;;;14.27;9.33;;;;;;;;;;4996446;28;20183;-76
2022/03/21 05:20:53;;;;;;;11.87;9.50;;;;;;;;;;5000779;28;20191;-76
2022/03/21 05:31:30;;;;;;;20.47;9.80;;;;;;;;;;5013855;28;20193;-75
2022/03/21 05:36:39;;;;;;;16.10;9.70;;;;;;;;;;5017812;28;20240;-76
2022/03/21 05:39:04;;;;;;;15.10;10.17;;;;;;;;;;5015677;28;20177;-76
2022/03/21 05:41:30;;;;;;;19.73;10.40;;;;;;;;;;5005560;28;20185;-75
2022/03/21 05:43:55;;;;;;;15.23;10.07;;;;;;;;;;5003837;28;20199;-76
2022/03/21 05:46:21;;;;;;;17.47;10.53;;;;;;;;;;5015270;28;20226;-75
2022/03/21 05:48:59;;;;;;;17.50;10.23;;;;;;;;;;5017144;28;20188;-75
2022/03/21 05:51:27;;;;;;;17.53;10.67;;;;;;;;;;4994830;28;20184;-75
2022/03/21 05:53:53;;;;;;;18.57;12.03;;;;;;;;;;4997375;28;20176;-75
2022/03/21 05:56:19;;;;;;;18.13;11.37;;;;;;;;;;5018003;28;20180;-76
2022/03/21 05:58:44;;;;;;;18.53;10.87;;;;;;;;;;5008731;28;20180;-76
2022/03/21 06:01:11;;;;;;;16.10;11.37;;;;;;;;;;5011350;28;20178;-76
2022/03/21 06:03:36;;;;;;;17.50;10.97;;;;;;;;;;5005029;28;20219;-76
2022/03/21 06:06:02;;;;;;;20.43;10.93;;;;;;;;;;4997306;28;20187;-75
2022/03/21 06:08:27;;;;;;;19.40;11.30;;;;;;;;;;5002684;28;20183;-76
2022/03/21 06:11:03;;;;;;;21.20;10.97;;;;;;;;;;4997779;28;20215;-76
2022/03/21 06:13:29;;;;;;;16.83;9.77;;;;;;;;;;4993138;28;20229;-76
2022/03/21 06:15:54;;;;;;;17.73;10.90;;;;;;;;;;5009738;28;20254;-75
2022/03/21 06:18:19;;;;;;;15.03;10.00;;;;;;;;;;5004347;28;20226;-76
2022/03/21 06:20:45;;;;;;;16.40;11.03;;;;;;;;;;5001860;28;20187;-76
2022/03/21 06:23:11;;;;;;;16.43;10.80;;;;;;;;;;4997493;28;20179;-75
2022/03/21 06:25:37;;;;;;;14.57;10.23;;;;;;;;;;5015118;28;20254;-75
2022/03/21 06:28:02;;;;;;;18.17;9.87;;;;;;;;;;5032191;28;20188;-75
2022/03/21 06:30:28;;;;;;;15.63;10.30;;;;;;;;;;5022699;28;20179;-75
2022/03/21 06:32:53;;;;;;;22.10;12.00;;;;;;;;;;5018170;28;20181;-75
2022/03/21 06:35:19;;;;;;;16.17;10.97;;;;;;;;;;5025433;28;20213;-76
2022/03/21 06:37:44;;;;;;;17.70;10.23;;;;;;;;;;4994170;28;20186;-75
2022/03/21 06:40:09;;;;;;;14.50;9.93;;;;;;;;;;5017151;28;20238;-75
2022/03/21 06:42:35;;;;;;;17.60;11.20;;;;;;;;;;5019935;28;20181;-75
2022/03/21 06:45:00;;;;;;;16.77;10.63;;;;;;;;;;4998629;28;20180;-76
2022/03/21 06:47:25;;;;;;;17.23;10.97;;;;;;;;;;5020614;28;20183;-76
2022/03/21 06:49:51;;;;;;;15.37;10.20;;;;;;;;;;5028524;28;20190;-76
2022/03/21 06:52:19;;;;;;;17.53;11.80;;;;;;;;;;5028063;28;20234;-75
2022/03/21 06:54:45;;;;;;;19.07;11.67;;;;;;;;;;4991282;28;20204;-76
2022/03/21 06:57:11;;;;;;;16.63;10.27;;;;;;;;;;5015663;28;20179;-76
2022/03/21 06:59:40;;;;;;;15.27;10.50;;;;;;;;;;5022533;28;20187;-76
2022/03/21 07:02:05;;;;;;;16.57;10.17;;;;;;;;;;5009561;28;20230;-76
2022/03/21 07:04:31;;;;;;;19.77;13.13;;;;;;;;;;5020856;28;20203;-75
2022/03/21 07:06:57;;;;;;;16.13;11.67;;;;;;;;;;4992075;28;20331;-76
2022/03/21 07:09:24;;;;;;;17.43;11.77;;;;;;;;;;4995916;28;20440;-76
2022/03/21 07:11:49;;;;;;;18.50;10.60;;;;;;;;;;5004064;28;20187;-76
2022/03/21 07:14:14;;;;;;;14.60;10.27;;;;;;;;;;5017669;28;20221;-76
2022/03/21 07:16:39;;;;;;;14.57;10.50;;;;;;;;;;4994269;28;20218;-76
2022/03/21 07:19:06;;;;;;;18.47;10.37;;;;;;;;;;5022919;28;20195;-76
2022/03/21 07:21:31;;;;;;;22.17;16.43;;;;;;;;;;5000246;28;20188;-76
2022/03/21 07:23:56;;;;;;;19.13;11.27;;;;;;;;;;5023404;28;20182;-76
2022/03/21 07:26:21;;;;;;;14.17;9.63;;;;;;;;;;5013229;28;20217;-76
2022/03/21 07:28:47;;;;;;;14.83;10.07;;;;;;;;;;4992152;28;20171;-75
2022/03/21 07:31:13;;;;;;;12.57;9.20;;;;;;;;;;4997049;28;20459;-76
2022/03/21 07:33:39;;;;;;;12.47;9.53;;;;;;;;;;4992965;28;20179;-76
2022/03/21 07:36:05;;;;;;;13.13;10.07;;;;;;;;;;4993753;28;20201;-76
2022/03/21 07:38:31;;;;;;;17.00;9.90;;;;;;;;;;5003188;28;20187;-76
2022/03/21 07:40:56;;;;;;;13.27;8.80;;;;;;;;;;5001308;28;20175;-75
2022/03/21 07:43:21;;;;;;;12.97;9.30;;;;;;;;;;4996680;28;20192;-75
2022/03/21 07:48:30;;;;;;;11.43;8.87;;;;;;;;;;5011206;28;20208;-76
2022/03/21 07:50:56;;;;;;;16.13;9.10;;;;;;;;;;4989541;28;20176;-76
2022/03/21 07:53:21;;;;;;;12.43;8.50;;;;;;;;;;4995074;28;20180;-76
2022/03/21 07:55:46;;;;;;;12.47;8.10;;;;;;;;;;5006532;28;20202;-76
2022/03/21 07:58:12;;;;;;;11.07;8.13;;;;;;;;;;5033787;28;20186;-75
2022/03/21 08:00:37;;;;;;;13.13;7.07;;;;;;;;;;5010570;28;20186;-76
2022/03/21 08:03:03;;;;;;;12.40;7.97;;;;;;;;;;5025650;28;20272;-76
2022/03/21 08:05:28;;;;;;;13.17;7.60;;;;;;;;;;5006706;28;20208;-75
2022/03/21 08:07:53;;;;;;;14.20;8.63;;;;;;;;;;4993903;28;20697;-75
2022/03/21 08:10:19;;;;;;;12.33;7.27;;;;;;;;;;4992895;28;20328;-76
2022/03/21 08:12:44;;;;;;;14.30;8.00;;;;;;;;;;4991420;28;20184;-75
2022/03/21 08:15:13;;;;;;;14.00;8.27;;;;;;;;;;5012317;28;20236;-75
2022/03/21 08:17:52;;;;;;;12.10;8.10;;;;;;;;;;5002057;28;20190;-76
2022/03/21 08:20:20;;;;;;;10.80;7.63;;;;;;;;;;4992129;28;20239;-76
2022/03/21 08:22:47;;;;;;;9.87;8.03;;;;;;;;;;5024491;28;20173;-75
2022/03/21 08:25:14;;;;;;;10.87;7.87;;;;;;;;;;5016345;28;20309;-75
2022/03/21 08:27:39;;;;;;;11.97;7.77;;;;;;;;;;4996816;28;20214;-75
2022/03/21 08:30:06;;;;;;;9.77;6.77;;;;;;;;;;5019954;28;20184;-75
2022/03/21 08:32:32;;;;;;;9.77;7.27;;;;;;;;;;5011975;28;20185;-76
2022/03/21 08:34:57;;;;;;;11.07;7.03;;;;;;;;;;4992389;28;20496;-75
2022/03/21 08:37:25;;;;;;;7.50;6.10;;;;;;;;;;5032435;28;20175;-75
2022/03/21 08:39:50;;;;;;;8.73;6.30;;;;;;;;;;4995361;28;20191;-76
2022/03/21 08:42:15;;;;;;;8.80;6.73;;;;;;;;;;5015098;28;20179;-75
2022/03/21 08:44:41;;;;;;;10.70;6.90;;;;;;;;;;5014508;28;20188;-75
2022/03/21 08:47:06;;;;;;;7.90;6.27;;;;;;;;;;4999223;28;20237;-75
2022/03/21 08:49:36;;;;;;;7.20;6.27;;;;;;;;;;5014771;28;20196;-75
2022/03/21 08:52:03;;;;;;;8.40;6.77;;;;;;;;;;4993731;28;20183;-75
2022/03/21 08:54:28;;;;;;;9.03;6.43;;;;;;;;;;5012846;28;20207;-75
2022/03/21 08:56:53;;;;;;;9.67;6.10;;;;;;;;;;5025288;28;20189;-75
2022/03/21 08:59:18;;;;;;;9.37;6.37;;;;;;;;;;5033880;28;20184;-75
2022/03/21 09:01:44;;;;;;;9.77;6.97;;;;;;;;;;5018193;28;20177;-75
2022/03/21 09:04:09;;;;;;;9.93;5.50;;;;;;;;;;4998599;28;20428;-75
2022/03/21 09:06:34;;;;;;;10.43;6.73;;;;;;;;;;5012247;28;20183;-75
2022/03/21 09:08:59;;;;;;;11.57;6.17;;;;;;;;;;5030075;28;20174;-73
2022/03/21 09:11:26;;;;;;;8.20;6.07;;;;;;;;;;4996913;28;20265;-73
2022/03/21 09:13:51;;;;;;;9.03;6.40;;;;;;;;;;4995589;28;20180;-73
2022/03/21 09:16:16;;;;;;;11.43;6.63;;;;;;;;;;4993770;28;20219;-73
2022/03/21 09:18:42;;;;;;;9.17;5.77;;;;;;;;;;4991985;28;20179;-73
2022/03/21 09:21:07;;;;;;;9.20;7.17;;;;;;;;;;4993897;28;20172;-73
2022/03/21 09:23:33;;;;;;;10.23;6.90;;;;;;;;;;4993423;28;20216;-73
2022/03/21 09:26:00;;;;;;;13.23;6.70;;;;;;;;;;5025595;28;20691;-73
2022/03/21 09:28:25;;;;;;;8.53;7.20;;;;;;;;;;5005964;28;20182;-73
2022/03/21 09:30:50;;;;;;;9.17;6.47;;;;;;;;;;5006918;28;20188;-73
2022/03/21 09:33:16;;;;;;;7.83;6.60;;;;;;;;;;5004965;28;20194;-73
2022/03/21 09:35:43;;;;;;;10.73;6.93;;;;;;;;;;4990754;28;20266;-73
2022/03/21 09:38:09;;;;;;;10.00;7.10;;;;;;;;;;4993001;28;20181;-73
2022/03/21 09:40:34;;;;;;;7.93;6.17;;;;;;;;;;5004519;28;20177;-73
2022/03/21 09:42:59;;;;;;;8.67;6.17;;;;;;;;;;4991238;28;20273;-73
2022/03/21 09:45:24;;;;;;;13.60;6.63;;;;;;;;;;4987830;28;20188;-73
2022/03/21 09:48:08;;;;;;;9.00;6.03;;;;;;;;;;4989522;28;20198;-73
2022/03/21 09:50:35;;;;;;;8.03;6.37;;;;;;;;;;4991716;28;20181;-73
2022/03/21 09:53:00;;;;;;;9.53;6.53;;;;;;;;;;5001102;28;20181;-73
2022/03/21 09:55:25;;;;;;;6.47;5.70;;;;;;;;;;4995159;28;20216;-73
2022/03/21 09:57:51;;;;;;;9.70;6.53;;;;;;;;;;5012395;28;20192;-73
2022/03/21 10:00:16;;;;;;;10.37;6.83;;;;;;;;;;4991534;28;20168;-73
2022/03/21 10:02:42;;;;;;;9.47;5.70;;;;;;;;;;5028735;28;20183;-73
2022/03/21 10:05:08;;;;;;;9.17;6.93;;;;;;;;;;4992903;28;20233;-73
2022/03/21 10:07:33;;;;;;;8.03;7.20;;;;;;;;;;5004477;28;20203;-73
2022/03/21 10:10:08;;;;;;;8.60;6.30;;;;;;;;;;5010036;28;20178;-73
2022/03/21 10:12:33;;;;;;;8.77;7.13;;;;;;;;;;5020878;28;20186;-73
2022/03/21 10:14:59;;;;;;;9.53;7.27;;;;;;;;;;4994615;28;20319;-73
2022/03/21 10:17:24;;;;;;;8.53;7.33;;;;;;;;;;4994389;28;20185;-73
2022/03/21 10:19:53;;;;;;;8.57;6.63;;;;;;;;;;5012680;28;20202;-77
2022/03/21 10:22:21;;;;;;;9.93;7.20;;;;;;;;;;4997081;28;20183;-73
2022/03/21 10:24:47;;;;;;;7.27;5.93;;;;;;;;;;4987463;28;20206;-73
2022/03/21 10:27:26;;;;;;;10.30;6.07;;;;;;;;;;5011070;28;20190;-72
2022/03/21 10:29:53;;;;;;;9.37;6.77;;;;;;;;;;5016699;28;20189;-73
2022/03/21 10:32:39;;;;;;;7.73;5.73;;;;;;;;;;5026772;28;20255;-73
2022/03/21 10:35:07;;;;;;;11.40;7.60;;;;;;;;;;4993340;28;20264;-73
2022/03/21 10:37:41;;;;;;;9.87;6.67;;;;;;;;;;4991015;28;20186;-73
2022/03/21 10:40:15;;;;;;;8.97;6.93;;;;;;;;;;5027823;28;20209;-73
2022/03/21 10:42:52;;;;;;;9.37;7.13;;;;;;;;;;5017772;28;20207;-73
2022/03/21 10:45:17;;;;;;;8.50;7.20;;;;;;;;;;5010147;28;20186;-73
2022/03/21 10:47:49;;;;;;;9.13;7.00;;;;;;;;;;5011834;28;20238;-73
2022/03/21 10:50:15;;;;;;;8.77;7.50;;;;;;;;;;5008959;28;20197;-73
2022/03/21 10:52:40;;;;;;;9.30;6.50;;;;;;;;;;5006532;28;20190;-73
2022/03/21 10:55:05;;;;;;;11.17;7.60;;;;;;;;;;5010131;28;20199;-73
2022/03/21 10:57:32;;;;;;;11.03;7.37;;;;;;;;;;4992542;28;20182;-73
2022/03/21 11:00:15;;;;;;;10.50;7.43;;;;;;;;;;5010280;28;20250;-73
2022/03/21 11:02:54;;;;;;;9.53;7.67;;;;;;;;;;5013728;28;20247;-73
2022/03/21 11:05:20;;;;;;;14.13;9.47;;;;;;;;;;5012600;28;20192;-73
2022/03/21 11:07:45;;;;;;;10.53;7.73;;;;;;;;;;5010230;28;20241;-73
2022/03/21 11:10:11;;;;;;;12.67;8.60;;;;;;;;;;4987132;28;20191;-73
2022/03/21 11:12:37;;;;;;;10.50;8.30;;;;;;;;;;5016256;28;20191;-73
2022/03/21 11:15:05;;;;;;;11.87;9.23;;;;;;;;;;4991052;28;20255;-73
2022/03/21 11:17:31;;;;;;;9.20;7.87;;;;;;;;;;4995898;28;20186;-73
2022/03/21 11:20:00;;;;;;;13.77;8.47;;;;;;;;;;5012721;28;20211;-73
2022/03/21 11:22:25;;;;;;;11.10;9.00;;;;;;;;;;4988692;28;20412;-73
2022/03/21 11:24:51;;;;;;;9.53;6.50;;;;;;;;;;5009417;28;20321;-73
2022/03/21 11:27:24;;;;;;;12.43;8.10;;;;;;;;;;4986423;28;20190;-73
2022/03/21 11:29:58;;;;;;;9.73;7.33;;;;;;;;;;5007224;28;20227;-73
2022/03/21 11:32:42;;;;;;;9.53;7.17;;;;;;;;;;5009527;28;20179;-73
2022/03/21 11:35:07;;;;;;;10.97;8.20;;;;;;;;;;5007325;28;20248;-73
2022/03/21 11:37:33;;;;;;;10.48;8.23;;;;;;;;;;4987406;28;20184;-73
2022/03/21 11:40:17;;;;;;;13.73;8.33;;;;;;;;;;4991464;28;20178;-73
2022/03/21 11:42:42;;;;;;;12.00;7.67;;;;;;;;;;5012168;28;20184;-73
2022/03/21 11:45:23;;;;;;;12.03;8.00;;;;;;;;;;5001632;28;20184;-73
2022/03/21 11:47:48;;;;;;;9.70;8.40;;;;;;;;;;5015329;28;20612;-73
2022/03/21 11:50:26;;;;;;;10.00;7.63;;;;;;;;;;5015805;28;20182;-73
2022/03/21 11:53:08;;;;;;;14.77;10.27;;;;;;;;;;5015428;28;20189;-73
2022/03/21 11:55:44;;;;;;;10.13;7.33;;;;;;;;;;4999286;28;20202;-73
2022/03/21 11:58:29;;;;;;;10.93;7.57;;;;;;;;;;5025760;28;20280;-73
2022/03/21 12:01:04;;;;;;;8.00;6.90;;;;;;;;;;4981004;28;20240;-73
2022/03/21 12:03:29;;;;;;;12.13;7.50;;;;;;;;;;5004241;28;20211;-73
2022/03/21 12:05:54;;;;;;;10.13;7.60;;;;;;;;;;4996669;28;20224;-73
2022/03/21 12:08:49;;;;;;;9.20;7.70;;;;;;;;;;4999208;28;20210;-73
2022/03/21 12:11:33;;;;;;;9.20;7.03;;;;;;;;;;4992913;28;20193;-73
2022/03/21 12:14:17;;;;;;;9.20;6.97;;;;;;;;;;5010938;28;20227;-73
2022/03/21 12:16:42;;;;;;;11.80;7.37;;;;;;;;;;5026035;28;20201;-73
2022/03/21 12:19:07;;;;;;;9.00;7.77;;;;;;;;;;5018594;28;20182;-73
2022/03/21 12:21:32;;;;;;;9.97;7.20;;;;;;;;;;4994701;28;20194;-73
2022/03/21 12:24:13;;;;;;;16.57;8.90;;;;;;;;;;5015224;28;20365;-73
2022/03/21 12:26:46;;;;;;;12.07;7.97;;;;;;;;;;4999592;28;20240;-73
2022/03/21 12:29:33;;;;;;;7.90;6.53;;;;;;;;;;5017786;28;20187;-73
2022/03/21 12:32:18;;;;;;;10.60;8.03;;;;;;;;;;4992016;28;20262;-73
2022/03/21 12:34:44;;;;;;;12.27;8.77;;;;;;;;;;4992936;28;20205;-73
2022/03/21 12:37:23;;;;;;;12.00;8.10;;;;;;;;;;5021247;28;20174;-73
2022/03/21 12:39:48;;;;;;;15.40;7.77;;;;;;;;;;4992770;28;20236;-73
2022/03/21 12:42:18;;;;;;;9.40;8.10;;;;;;;;;;5014436;28;20209;-73
2022/03/21 12:44:43;;;;;;;15.40;8.67;;;;;;;;;;5013045;28;20325;-73
2022/03/21 12:47:09;;;;;;;14.53;8.50;;;;;;;;;;5015673;28;20299;-73
2022/03/21 12:49:47;;;;;;;10.93;8.60;;;;;;;;;;5014253;28;20187;-73
2022/03/21 12:52:24;;;;;;;9.47;8.23;;;;;;;;;;5013202;28;20179;-73
2022/03/21 12:54:49;;;;;;;13.60;9.43;;;;;;;;;;5011906;28;20219;-73
2022/03/21 12:57:14;;;;;;;12.50;8.27;;;;;;;;;;5016117;28;20272;-73
2022/03/21 12:59:39;;;;;;;14.43;9.17;;;;;;;;;;5011848;28;20208;-73
2022/03/21 13:02:04;;;;;;;30.83;20.07;;;;;;;;;;4998811;28;20221;-73
2022/03/21 13:12:41;;;;;;;10.97;8.90;;;;;;;;;;5013069;28;20197;-73
2022/03/21 13:15:08;;;;;;;15.93;8.97;;;;;;;;;;5010665;28;20231;-73
2022/03/21 13:17:46;;;;;;;12.10;8.70;;;;;;;;;;5017525;28;20214;-73
2022/03/21 13:20:14;;;;;;;12.20;8.80;;;;;;;;;;5003420;28;20284;-72
2022/03/21 13:22:40;;;;;;;13.10;9.10;;;;;;;;;;4992935;28;20193;-73
2022/03/21 13:25:05;;;;;;;13.07;8.80;;;;;;;;;;4986711;28;20189;-73
2022/03/21 13:27:34;;;;;;;14.70;9.83;;;;;;;;;;5013364;28;20185;-73
2022/03/21 13:29:59;;;;;;;13.37;10.00;;;;;;;;;;4991887;28;20187;-73
2022/03/21 13:32:25;;;;;;;12.17;9.30;;;;;;;;;;5004007;28;20175;-73
2022/03/21 13:34:51;;;;;;;13.40;8.97;;;;;;;;;;4993263;28;20290;-73
2022/03/21 13:37:19;;;;;;;12.70;10.10;;;;;;;;;;4992235;28;20179;-73
2022/03/21 13:40:01;;;;;;;13.00;9.97;;;;;;;;;;5005389;28;20281;-73
2022/03/21 13:42:26;;;;;;;14.73;10.23;;;;;;;;;;4995533;28;20313;-73
2022/03/21 13:44:55;;;;;;;13.37;9.70;;;;;;;;;;5011245;28;20191;-73
2022/03/21 13:47:20;;;;;;;17.13;11.10;;;;;;;;;;4993816;28;20185;-73
2022/03/21 13:49:47;;;;;;;14.90;9.47;;;;;;;;;;4995244;28;20179;-73
2022/03/21 13:52:13;;;;;;;12.47;10.57;;;;;;;;;;4996605;28;20182;-73
2022/03/21 13:54:52;;;;;;;13.97;9.60;;;;;;;;;;5011125;28;20214;-73
2022/03/21 13:57:17;;;;;;;14.20;11.27;;;;;;;;;;4997939;28;20265;-73
2022/03/21 13:59:42;;;;;;;16.60;10.70;;;;;;;;;;5013056;28;20267;-73
2022/03/21 14:02:10;;;;;;;14.87;11.53;;;;;;;;;;4995403;28;20181;-73
2022/03/21 14:04:37;;;;;;;18.23;11.63;;;;;;;;;;5016617;28;20290;-73
2022/03/21 14:07:02;;;;;;;13.77;10.13;;;;;;;;;;4994606;28;20187;-73
2022/03/21 14:09:28;;;;;;;14.07;10.10;;;;;;;;;;5006402;28;20186;-73
2022/03/21 14:12:07;;;;;;;15.93;11.07;;;;;;;;;;4994589;28;20332;-73
2022/03/21 14:14:33;;;;;;;15.83;11.57;;;;;;;;;;5000272;28;20277;-73
2022/03/21 14:16:58;;;;;;;13.57;10.30;;;;;;;;;;4972277;28;20228;-73
2022/03/21 14:19:23;;;;;;;14.20;9.77;;;;;;;;;;4994295;28;20206;-73
2022/03/21 14:21:49;;;;;;;14.70;10.30;;;;;;;;;;4980020;28;20191;-73
2022/03/21 14:24:14;;;;;;;16.47;11.37;;;;;;;;;;4973344;28;20186;-73
2022/03/21 14:26:41;;;;;;;13.83;11.20;;;;;;;;;;4971203;28;20194;-73
2022/03/21 14:29:06;;;;;;;14.50;10.87;;;;;;;;;;4988208;28;20174;-73
2022/03/21 14:31:31;;;;;;;14.10;10.80;;;;;;;;;;4983849;28;20177;-73
2022/03/21 14:33:57;;;;;;;15.43;11.30;;;;;;;;;;4997933;28;20194;-73
2022/03/21 14:36:22;;;;;;;15.40;10.90;;;;;;;;;;4990541;28;20223;-73
2022/03/21 14:38:48;;;;;;;14.50;11.93;;;;;;;;;;4987159;28;20384;-73
2022/03/21 14:41:13;;;;;;;14.53;12.20;;;;;;;;;;4987086;28;20187;-72
2022/03/21 14:43:39;;;;;;;16.53;9.97;;;;;;;;;;4974650;28;20185;-73
2022/03/21 14:46:04;;;;;;;14.90;11.27;;;;;;;;;;5002092;28;20184;-73
2022/03/21 14:48:30;;;;;;;12.03;10.50;;;;;;;;;;4971431;28;20278;-73
2022/03/21 14:50:57;;;;;;;14.03;10.77;;;;;;;;;;4964230;28;20173;-73
2022/03/21 14:53:23;;;;;;;19.57;12.17;;;;;;;;;;4987724;28;20181;-74